createdAt,value
2019-02-25T05:18:47.060Z,-0.71
2019-02-25T05:54:54.444Z,-0.73
2019-02-25T05:57:47.163Z,-0.76
2019-02-25T06:00:48.847Z,-0.70
2019-02-25T06:23:49.759Z,-0.92
2019-02-25T06:24:48.569Z,-0.86
2019-02-25T06:27:09.007Z,-0.89
2019-02-25T06:34:08.538Z,-0.95
2019-02-25T06:35:08.076Z,-0.89
2019-02-25T06:36:08.103Z,-0.99
2019-02-25T06:37:08.230Z,-0.97
2019-02-25T06:38:07.973Z,-0.96
2019-02-25T06:39:07.975Z,-0.97
2019-02-25T06:40:07.993Z,-0.96
2019-02-25T06:41:07.975Z,-0.89
2019-02-25T06:42:08.799Z,-0.96
2019-02-25T06:52:06.401Z,-0.86
2019-02-25T06:53:06.016Z,-0.96
2019-02-25T06:56:16.466Z,-0.92
2019-02-25T06:57:16.482Z,-0.96
2019-02-25T06:58:16.186Z,-0.89
2019-02-25T06:59:16.090Z,-0.90
2019-02-25T07:00:16.219Z,-0.86
2019-02-25T07:08:20.673Z,-0.76
2019-02-25T07:09:20.290Z,-0.74
2019-02-25T07:10:20.370Z,-0.68
2019-02-25T07:11:20.292Z,-0.71
2019-02-25T07:12:20.229Z,-0.59
2019-02-25T07:13:20.089Z,-0.63
2019-02-25T07:14:20.087Z,-0.52
2019-02-25T07:15:20.098Z,-0.59
2019-02-25T07:16:20.117Z,-0.60
2019-02-25T07:17:20.056Z,-0.63
2019-02-25T07:18:20.043Z,-0.63
2019-02-25T07:19:20.050Z,-0.59
2019-02-25T07:36:51.254Z,-0.16
2019-02-25T07:50:19.779Z,0.31
2019-02-25T09:31:02.967Z,10.93
2019-02-25T09:40:19.748Z,11.49
2019-02-25T09:48:47.341Z,11.88
2019-02-25T11:40:44.128Z,12.04
2019-02-25T11:41:43.671Z,12.13
2019-02-25T11:42:43.767Z,12.04
2019-02-25T11:43:45.795Z,12.15
2019-02-25T11:44:43.780Z,12.05
2019-02-25T12:20:38.217Z,13.86
2019-02-25T12:39:29.054Z,14.45
2019-02-25T12:41:33.696Z,14.45
2019-02-25T12:42:32.970Z,14.45
2019-02-25T12:43:32.684Z,14.49
2019-02-25T12:44:33.012Z,14.52
2019-02-25T12:45:32.774Z,14.56
2019-02-25T12:46:32.635Z,14.60
2019-02-25T12:47:32.764Z,14.75
2019-02-25T12:48:32.635Z,14.82
2019-02-25T12:49:32.801Z,14.74
2019-02-25T12:50:32.583Z,14.86
2019-02-25T12:51:32.588Z,14.93
2019-02-25T12:52:32.612Z,14.95
2019-02-25T12:53:32.608Z,14.97
2019-02-25T12:54:32.534Z,14.90
2019-02-25T12:55:32.613Z,15.09
2019-02-25T12:56:32.676Z,15.18
2019-02-25T12:57:32.488Z,15.30
2019-02-25T12:58:32.540Z,15.34
2019-02-25T12:59:32.559Z,15.28
2019-02-25T13:00:32.577Z,15.43
2019-02-25T13:01:32.489Z,15.41
2019-02-25T13:02:32.461Z,15.38
2019-02-25T13:03:32.451Z,15.41
2019-02-25T13:04:32.423Z,15.43
2019-02-25T13:05:32.441Z,15.41
2019-02-25T13:06:32.431Z,15.46
2019-02-25T13:07:32.959Z,15.58
2019-02-25T13:08:32.429Z,15.62
2019-02-25T13:09:32.411Z,15.68
2019-02-25T13:10:32.933Z,15.71
2019-02-25T13:16:48.549Z,16.14
2019-02-25T13:17:45.909Z,16.16
2019-02-25T13:18:44.766Z,16.25
2019-02-25T13:19:44.623Z,16.34
2019-02-25T13:20:51.197Z,16.50
2019-02-25T13:21:44.657Z,16.54
2019-02-25T13:22:47.230Z,16.65
2019-02-25T13:23:44.500Z,16.77
2019-02-25T13:24:46.447Z,16.84
2019-02-25T13:25:44.710Z,16.87
2019-02-25T13:26:44.574Z,16.82
2019-02-25T13:27:44.575Z,16.92
2019-02-25T13:31:24.492Z,16.95
2019-02-25T13:32:23.240Z,17.02
2019-02-25T13:33:20.881Z,17.22
2019-02-25T13:34:33.342Z,17.39
2019-02-25T13:35:21.458Z,17.68
2019-02-25T13:36:21.131Z,17.77
2019-02-25T13:37:22.829Z,17.92
2019-02-25T13:38:30.623Z,18.01
2019-02-25T13:41:30.756Z,18.51
2019-02-25T13:42:29.904Z,18.66
2019-02-25T13:43:30.469Z,18.94
2019-02-25T13:47:58.866Z,19.32
2019-02-25T13:48:58.764Z,19.30
2019-02-25T13:49:58.457Z,19.30
2019-02-25T13:52:58.636Z,19.13
2019-02-25T13:59:05.288Z,19.65
2019-02-25T14:00:05.135Z,19.79
2019-02-25T14:01:04.971Z,19.85
2019-02-25T14:02:04.903Z,19.70
2019-02-25T14:03:04.909Z,19.78
2019-02-25T14:04:04.912Z,19.87
2019-02-25T14:05:04.902Z,19.82
2019-02-25T14:06:04.799Z,19.90
2019-02-25T14:07:04.813Z,19.97
2019-02-25T14:08:04.957Z,20.07
2019-02-25T14:09:04.802Z,20.20
2019-02-25T14:10:05.127Z,20.26
2019-02-25T14:11:04.818Z,20.35
2019-02-25T14:12:04.985Z,20.33
2019-02-25T14:13:04.821Z,20.35
2019-02-25T14:14:04.890Z,20.41
2019-02-25T14:15:04.742Z,20.40
2019-02-25T14:16:06.650Z,20.35
2019-02-25T14:17:04.926Z,20.33
2019-02-25T14:18:04.796Z,20.20
2019-02-25T14:19:04.794Z,20.07
2019-02-25T14:20:07.737Z,19.98
2019-02-25T14:21:05.636Z,20.04
2019-02-25T14:22:16.536Z,20.02
2019-02-25T14:23:26.039Z,19.97
2019-02-25T14:24:05.197Z,19.90
2019-02-25T14:25:05.229Z,19.94
2019-02-25T14:26:05.602Z,19.92
2019-02-25T14:27:05.283Z,19.92
2019-02-25T14:28:07.816Z,20.08
2019-02-25T14:29:06.821Z,20.10
2019-02-25T14:30:04.792Z,20.12
2019-02-25T14:31:08.349Z,20.12
2019-02-25T14:32:04.942Z,20.02
2019-02-25T14:36:29.695Z,20.54
2019-02-25T14:39:16.162Z,20.88
2019-02-25T14:41:35.740Z,21.19
2019-02-25T14:42:38.767Z,21.24
2019-02-25T14:43:41.793Z,21.31
2019-02-25T14:44:38.154Z,21.49
2019-02-25T14:45:35.135Z,21.28
2019-02-25T14:46:35.188Z,21.28
2019-02-25T14:47:37.080Z,21.06
2019-02-25T14:48:35.334Z,20.96
2019-02-25T14:49:38.314Z,20.78
2019-02-25T14:50:35.086Z,20.68
2019-02-25T14:51:35.361Z,20.57
2019-02-25T14:52:35.016Z,20.57
2019-02-25T14:53:34.993Z,20.72
2019-02-25T14:54:34.912Z,20.66
2019-02-25T14:55:34.887Z,20.78
2019-02-25T14:56:35.191Z,20.85
2019-02-25T14:57:38.216Z,20.94
2019-02-25T14:58:37.731Z,21.08
2019-02-25T15:01:20.955Z,21.43
2019-02-25T15:26:25.751Z,20.25
2019-02-25T15:27:23.987Z,20.16
2019-02-25T15:28:24.306Z,20.15
2019-02-25T15:29:23.927Z,20.08
2019-02-25T15:30:25.632Z,20.10
2019-02-25T15:31:24.976Z,20.10
2019-02-25T15:32:37.151Z,20.00
2019-02-25T15:33:23.892Z,20.02
2019-02-25T15:34:23.891Z,19.85
2019-02-25T15:35:26.301Z,19.68
2019-02-25T15:36:24.719Z,19.57
2019-02-25T15:37:23.689Z,19.46
2019-02-25T15:38:23.739Z,19.46
2019-02-25T15:39:26.018Z,19.38
2019-02-25T15:40:25.096Z,19.38
2019-02-25T15:41:23.601Z,19.45
2019-02-25T15:42:24.152Z,19.39
2019-02-25T15:43:25.429Z,19.45
2019-02-25T15:44:23.562Z,19.25
2019-02-25T15:45:26.820Z,19.32
2019-02-25T15:46:24.262Z,19.30
2019-02-25T15:47:23.572Z,19.20
2019-02-25T15:48:23.540Z,19.23
2019-02-25T15:49:24.416Z,19.13
2019-02-25T15:50:23.539Z,19.21
2019-02-25T15:51:23.567Z,19.09
2019-02-25T15:52:25.142Z,19.06
2019-02-25T15:53:23.921Z,19.02
2019-02-25T15:55:47.388Z,18.97
2019-02-25T15:56:46.483Z,18.89
2019-02-25T15:57:46.559Z,18.76
2019-02-25T15:58:47.175Z,18.78
2019-02-25T15:59:46.343Z,18.72
2019-02-25T16:00:46.399Z,18.53
2019-02-25T16:01:46.301Z,18.46
2019-02-25T16:02:46.543Z,18.42
2019-02-25T16:03:46.610Z,18.36
2019-02-25T16:04:46.286Z,18.39
2019-02-25T16:05:46.387Z,18.28
2019-02-25T16:06:47.082Z,18.29
2019-02-25T16:07:46.389Z,18.26
2019-02-25T16:08:49.836Z,18.16
2019-02-25T16:09:46.286Z,18.14
2019-02-25T16:10:47.246Z,18.04
2019-02-25T16:11:47.500Z,18.01
2019-02-25T16:12:46.233Z,17.84
2019-02-25T16:13:46.259Z,17.73
2019-02-25T16:14:47.156Z,17.63
2019-02-25T16:15:46.199Z,17.58
2019-02-25T16:16:46.151Z,17.57
2019-02-25T16:17:46.127Z,17.43
2019-02-25T16:18:46.164Z,17.27
2019-02-25T16:19:48.293Z,17.17
2019-02-25T16:20:46.351Z,17.17
2019-02-25T16:21:46.109Z,17.02
2019-02-25T16:22:46.118Z,16.99
2019-02-25T16:23:46.075Z,16.98
2019-02-25T16:24:46.054Z,16.82
2019-02-25T16:25:46.656Z,16.84
2019-02-25T16:26:46.044Z,16.70
2019-02-25T16:27:49.441Z,16.72
2019-02-25T16:28:46.041Z,16.65
2019-02-25T16:29:45.988Z,16.57
2019-02-25T16:30:46.933Z,16.42
2019-02-25T16:31:46.014Z,16.51
2019-02-25T16:32:46.691Z,16.41
2019-02-25T16:33:47.079Z,16.33
2019-02-25T16:34:45.953Z,16.25
2019-02-25T16:35:46.241Z,16.18
2019-02-25T16:36:49.712Z,16.10
2019-02-25T16:37:48.577Z,16.01
2019-02-25T16:38:45.896Z,15.92
2019-02-25T16:39:45.890Z,15.92
2019-02-25T16:40:45.866Z,15.84
2019-02-25T16:41:47.449Z,15.78
2019-02-25T16:42:45.918Z,15.66
2019-02-25T16:43:45.847Z,15.60
2019-02-25T16:44:45.859Z,15.52
2019-02-25T16:45:47.051Z,15.55
2019-02-25T16:46:46.757Z,15.44
2019-02-25T16:51:17.666Z,15.13
2019-02-25T16:52:15.883Z,15.09
2019-02-25T16:53:15.491Z,14.97
2019-02-25T16:54:18.265Z,14.87
2019-02-25T16:55:17.601Z,14.80
2019-02-25T16:56:14.838Z,14.74
2019-02-25T16:57:16.274Z,14.54
2019-02-25T16:58:14.824Z,14.42
2019-02-25T16:59:15.751Z,14.30
2019-02-25T17:00:14.870Z,14.17
2019-02-25T17:01:15.247Z,14.19
2019-02-25T17:02:14.620Z,14.05
2019-02-25T17:03:16.090Z,13.93
2019-02-25T17:04:16.025Z,14.01
2019-02-25T17:05:14.616Z,13.87
2019-02-25T17:06:14.630Z,13.76
2019-02-25T17:07:16.091Z,13.71
2019-02-25T17:08:14.534Z,13.59
2019-02-25T17:09:16.091Z,13.63
2019-02-25T17:10:14.662Z,13.59
2019-02-25T17:11:15.638Z,13.46
2019-02-25T17:12:14.622Z,13.47
2019-02-25T17:13:15.432Z,13.29
2019-02-25T17:14:14.902Z,13.36
2019-02-25T17:15:14.459Z,13.22
2019-02-25T17:16:18.548Z,13.14
2019-02-25T17:17:15.433Z,12.99
2019-02-25T17:18:16.980Z,13.01
2019-02-25T17:19:14.467Z,12.91
2019-02-25T17:20:14.422Z,12.87
2019-02-25T17:21:17.134Z,12.81
2019-02-25T17:22:14.467Z,12.79
2019-02-25T17:23:14.484Z,12.69
2019-02-25T17:24:14.421Z,12.62
2019-02-25T17:25:14.483Z,12.52
2019-02-25T17:26:14.899Z,12.51
2019-02-25T17:27:14.471Z,12.48
2019-02-25T17:28:17.120Z,12.36
2019-02-25T17:29:15.436Z,12.37
2019-02-25T17:30:15.243Z,12.21
2019-02-25T17:31:16.141Z,12.08
2019-02-25T17:32:15.040Z,12.11
2019-02-25T17:33:14.814Z,12.05
2019-02-25T17:34:14.915Z,11.97
2019-02-25T17:35:14.268Z,11.88
2019-02-25T17:36:15.036Z,11.87
2019-02-25T17:37:14.873Z,11.67
2019-02-25T17:38:14.218Z,11.75
2019-02-25T17:39:15.061Z,11.69
2019-02-25T17:40:14.244Z,11.60
2019-02-25T17:41:14.241Z,11.59
2019-02-25T17:42:14.205Z,11.56
2019-02-25T17:43:15.775Z,11.42
2019-02-25T17:44:14.177Z,11.41
2019-02-25T17:45:14.128Z,11.30
2019-02-25T17:46:14.607Z,11.31
2019-02-25T17:47:21.579Z,11.19
2019-02-25T17:48:16.113Z,11.20
2019-02-25T17:49:14.519Z,11.11
2019-02-25T17:50:14.111Z,11.03
2019-02-25T17:51:24.887Z,11.01
2019-02-25T17:52:15.827Z,10.91
2019-02-25T17:53:16.211Z,10.90
2019-02-25T17:55:50.713Z,10.78
2019-02-25T17:56:40.515Z,10.70
2019-02-25T17:57:50.301Z,10.60
2019-02-25T17:59:55.795Z,10.55
2019-02-25T18:00:56.470Z,10.39
2019-02-25T18:01:55.427Z,10.32
2019-02-25T18:02:56.690Z,10.32
2019-02-25T18:03:55.947Z,10.28
2019-02-25T18:04:55.584Z,10.25
2019-02-25T18:05:58.519Z,10.24
2019-02-25T18:06:57.035Z,10.17
2019-02-25T18:07:55.284Z,10.06
2019-02-25T18:08:55.409Z,10.06
2019-02-25T18:09:55.261Z,9.96
2019-02-25T18:10:55.159Z,9.91
2019-02-25T18:11:55.156Z,9.92
2019-02-25T18:12:56.847Z,9.88
2019-02-25T18:13:55.637Z,9.86
2019-02-25T18:14:55.213Z,9.81
2019-02-25T18:15:55.825Z,9.62
2019-02-25T18:16:55.356Z,9.65
2019-02-25T18:17:55.085Z,9.63
2019-02-25T18:18:55.586Z,9.58
2019-02-25T18:19:56.738Z,9.55
2019-02-25T18:20:55.244Z,9.42
2019-02-25T18:21:58.194Z,9.44
2019-02-25T18:22:55.029Z,9.37
2019-02-25T18:23:55.048Z,9.41
2019-02-25T18:24:55.185Z,9.31
2019-02-25T18:25:58.069Z,9.26
2019-02-25T18:26:55.170Z,9.20
2019-02-25T18:27:55.056Z,9.22
2019-02-25T18:28:55.056Z,9.10
2019-02-25T18:31:21.190Z,8.98
2019-02-25T18:32:27.860Z,8.91
2019-02-25T18:33:32.485Z,8.97
2019-02-25T18:42:28.934Z,8.60
2019-02-25T18:44:39.639Z,8.49
2019-02-25T18:45:41.050Z,8.49
2019-02-25T18:46:41.712Z,8.40
2019-02-25T18:47:39.353Z,8.34
2019-02-25T18:48:40.725Z,8.40
2019-02-25T18:49:39.663Z,8.27
2019-02-25T18:50:39.566Z,8.24
2019-02-25T18:51:39.475Z,8.21
2019-02-25T18:52:39.130Z,8.13
2019-02-25T18:53:39.022Z,8.14
2019-02-25T18:54:39.664Z,8.10
2019-02-25T18:55:41.202Z,8.03
2019-02-25T18:56:40.807Z,8.07
2019-02-25T18:57:39.059Z,7.95
2019-02-25T18:58:39.579Z,7.96
2019-02-25T18:59:38.947Z,8.03
2019-02-25T19:00:40.184Z,8.03
2019-02-25T19:01:39.126Z,7.96
2019-02-25T19:02:40.253Z,7.92
2019-02-25T19:03:38.962Z,7.91
2019-02-25T19:04:40.835Z,7.81
2019-02-25T19:05:38.926Z,7.84
2019-02-25T19:06:39.204Z,7.81
2019-02-25T19:07:39.395Z,7.71
2019-02-25T19:08:38.920Z,7.73
2019-02-25T19:09:40.814Z,7.66
2019-02-25T19:10:41.259Z,7.54
2019-02-25T19:12:40.021Z,7.45
2019-02-25T19:13:38.766Z,7.50
2019-02-25T19:14:41.773Z,7.47
2019-02-25T19:15:40.343Z,7.34
2019-02-25T19:16:40.036Z,7.39
2019-02-25T19:17:38.893Z,7.37
2019-02-25T19:18:41.321Z,7.30
2019-02-25T19:19:40.211Z,7.30
2019-02-25T19:20:39.336Z,7.27
2019-02-25T19:21:38.735Z,7.24
2019-02-25T19:39:50.646Z,6.78
2019-02-25T19:40:52.547Z,6.69
2019-02-25T19:41:51.367Z,6.65
2019-02-25T19:42:51.349Z,6.63
2019-02-25T19:43:58.699Z,6.61
2019-02-25T19:44:51.128Z,6.55
2019-02-25T19:45:51.662Z,6.60
2019-02-25T19:48:07.343Z,6.51
2019-02-25T19:49:06.864Z,6.55
2019-02-25T19:50:07.522Z,6.46
2019-02-25T19:51:06.627Z,6.50
2019-02-25T19:52:07.196Z,6.32
2019-02-25T19:53:09.517Z,6.40
2019-02-25T19:55:36.260Z,6.32
2019-02-25T19:56:34.741Z,6.32
2019-02-25T19:57:34.519Z,6.36
2019-02-25T20:01:22.238Z,6.16
2019-02-25T20:02:22.615Z,6.24
2019-02-25T20:03:21.562Z,6.10
2019-02-25T20:04:21.306Z,6.21
2019-02-25T20:05:21.732Z,6.13
2019-02-25T20:06:21.580Z,6.20
2019-02-25T20:07:25.921Z,6.14
2019-02-25T20:08:23.791Z,6.08
2019-02-25T20:09:21.082Z,5.98
2019-02-25T20:10:21.107Z,6.05
2019-02-25T20:11:21.045Z,5.98
2019-02-25T20:12:21.080Z,5.95
2019-02-25T20:13:46.743Z,5.93
2019-02-25T20:14:21.863Z,5.92
2019-02-25T20:15:37.559Z,5.95
2019-02-25T20:17:50.610Z,5.83
2019-02-25T20:18:47.721Z,5.77
2019-02-25T20:19:48.430Z,5.74
2019-02-25T20:20:47.682Z,5.78
2019-02-25T20:23:01.607Z,5.69
2019-02-25T20:24:00.151Z,5.73
2019-02-25T20:25:00.020Z,5.67
2019-02-25T20:26:00.541Z,5.63
2019-02-25T20:29:13.615Z,5.60
2019-02-25T20:32:02.987Z,5.58
2019-02-25T20:33:06.306Z,5.47
2019-02-25T20:35:44.971Z,5.52
2019-02-25T20:36:40.855Z,5.44
2019-02-25T20:37:39.793Z,5.47
2019-02-25T20:38:39.823Z,5.41
2019-02-25T20:39:41.155Z,5.45
2019-02-25T20:40:39.453Z,5.38
2019-02-25T20:41:39.483Z,5.40
2019-02-25T20:42:39.519Z,5.30
2019-02-25T20:43:39.408Z,5.38
2019-02-25T20:44:39.346Z,5.32
2019-02-25T20:45:39.400Z,5.30
2019-02-25T21:00:41.983Z,5.12
2019-02-25T21:01:42.289Z,5.09
2019-02-25T21:02:39.659Z,5.06
2019-02-25T21:03:43.829Z,4.99
2019-02-25T21:04:40.941Z,4.96
2019-02-25T21:05:39.940Z,4.96
2019-02-25T21:06:40.213Z,4.96
2019-02-25T21:07:39.418Z,4.93
2019-02-25T21:08:39.972Z,4.91
2019-02-25T21:09:40.408Z,4.87
2019-02-25T21:10:39.450Z,4.90
2019-02-25T21:11:39.367Z,4.93
2019-02-25T21:12:40.102Z,4.77
2019-02-25T21:13:40.260Z,4.84
2019-02-25T21:14:41.145Z,4.75
2019-02-25T21:15:40.778Z,4.71
2019-02-25T21:16:39.229Z,4.74
2019-02-25T21:17:40.232Z,4.72
2019-02-25T21:18:39.725Z,4.71
2019-02-25T21:19:39.961Z,4.67
2019-02-25T21:20:39.140Z,4.64
2019-02-25T21:21:39.206Z,4.61
2019-02-25T21:22:44.562Z,4.61
2019-02-25T21:25:13.707Z,4.61
2019-02-25T21:27:57.159Z,4.54
2019-02-25T21:28:57.967Z,4.56
2019-02-25T21:37:00.273Z,4.29
2019-02-25T21:39:23.813Z,4.28
2019-02-25T21:40:22.363Z,4.29
2019-02-25T21:41:21.491Z,4.25
2019-02-25T21:42:22.361Z,4.31
2019-02-25T21:43:21.093Z,4.25
2019-02-25T21:46:01.613Z,4.24
2019-02-25T21:47:01.164Z,4.18
2019-02-25T21:48:01.969Z,4.14
2019-02-25T21:49:02.250Z,4.21
2019-02-25T21:50:04.055Z,4.20
2019-02-25T21:51:02.279Z,4.14
2019-02-25T21:52:00.323Z,4.16
2019-02-25T21:52:59.210Z,4.17
2019-02-25T21:53:59.954Z,4.20
2019-02-25T21:55:00.065Z,4.20
2019-02-25T21:56:02.952Z,4.20
2019-02-25T21:57:01.683Z,4.14
2019-02-25T21:58:00.845Z,4.17
2019-02-25T21:58:59.100Z,4.16
2019-02-25T22:00:01.022Z,4.18
2019-02-25T22:00:59.120Z,4.18
2019-02-25T22:01:59.426Z,4.13
2019-02-25T22:03:00.036Z,4.11
2019-02-25T22:10:16.591Z,3.98
2019-02-25T22:13:06.667Z,3.95
2019-02-25T22:14:03.319Z,3.93
2019-02-25T22:15:04.180Z,3.88
2019-02-25T22:16:03.388Z,3.95
2019-02-25T22:17:01.862Z,3.89
2019-02-25T22:18:03.411Z,3.95
2019-02-25T22:52:21.843Z,3.41
2019-02-25T22:53:20.107Z,3.33
2019-02-25T22:55:29.355Z,3.34
2019-02-25T22:56:29.340Z,3.31
2019-02-25T22:57:29.605Z,3.22
2019-02-25T22:58:29.130Z,3.26
2019-02-25T22:59:29.140Z,3.23
2019-02-25T23:00:28.991Z,3.19
2019-02-25T23:01:29.071Z,3.19
2019-02-25T23:02:28.997Z,3.15
2019-02-25T23:03:28.904Z,3.13
2019-02-25T23:04:28.885Z,3.13
2019-02-25T23:05:29.089Z,3.10
2019-02-25T23:06:28.847Z,3.08
2019-02-25T23:07:28.948Z,3.04
2019-02-25T23:08:28.806Z,3.04
2019-02-25T23:09:28.885Z,3.10
2019-02-25T23:10:28.939Z,3.05
2019-02-25T23:11:28.776Z,3.04
2019-02-25T23:12:30.986Z,2.95
2019-02-25T23:13:30.360Z,2.97
2019-02-25T23:14:28.815Z,2.89
2019-02-25T23:15:30.365Z,2.98
2019-02-25T23:16:28.835Z,2.90
2019-02-25T23:17:31.116Z,2.89
2019-02-25T23:18:28.729Z,2.84
2019-02-25T23:19:29.466Z,2.87
2019-02-25T23:20:29.608Z,2.89
2019-02-25T23:21:31.183Z,2.83
2019-02-25T23:22:30.191Z,2.83
2019-02-25T23:23:30.640Z,2.74
2019-02-25T23:24:30.543Z,2.81
2019-02-25T23:25:30.438Z,2.80
2019-02-25T23:26:28.629Z,2.74
2019-02-25T23:27:30.117Z,2.79
2019-02-25T23:28:30.424Z,2.84
2019-02-25T23:29:28.676Z,2.80
2019-02-25T23:30:28.707Z,2.80
2019-02-25T23:31:30.074Z,2.80
2019-02-25T23:32:28.555Z,2.74
2019-02-25T23:33:28.529Z,2.73
2019-02-25T23:34:28.700Z,2.83
2019-02-25T23:35:28.683Z,2.81
2019-02-25T23:36:28.512Z,2.73
2019-02-25T23:37:28.532Z,2.77
2019-02-25T23:38:28.508Z,2.73
2019-02-25T23:39:32.030Z,2.73
2019-02-25T23:40:31.230Z,2.66
2019-02-25T23:41:31.900Z,2.65
2019-02-25T23:42:32.751Z,2.66
2019-02-25T23:43:28.530Z,2.63
2019-02-25T23:44:28.470Z,2.65
2019-02-25T23:45:28.422Z,2.68
2019-02-25T23:46:29.863Z,2.66
2019-02-25T23:47:29.145Z,2.63
2019-02-25T23:48:32.901Z,2.63
2019-02-25T23:49:29.422Z,2.61
2019-02-25T23:50:29.749Z,2.61
2019-02-25T23:51:29.582Z,2.61
2019-02-25T23:52:30.950Z,2.61
2019-02-25T23:53:30.511Z,2.55
2019-02-25T23:54:28.488Z,2.51
2019-02-25T23:56:48.004Z,2.47
2019-02-25T23:57:45.673Z,2.43
2019-02-25T23:58:47.131Z,2.41
2019-02-25T23:59:47.067Z,2.41
